Time;durP1;ratioP1;P1;durP2;ratioP2;P2;SDS_P1;SDS_P2;PMS_P1;PMS_P2;Temp;Humidity;BMP_temperature;BMP_pressure;BME280_temperature;BME280_humidity;BME280_pressure;Samples;Min_cycle;Max_cycle;Signal;HPM_P1;HPM_P2
2023/01/01 00:00:10;;;;;;;57.43;39.87;;;15.50;99.90;;;;;;5050384;28;20429;-55
2023/01/01 00:02:37;;;;;;;61.73;43.10;;;15.60;99.90;;;;;;5051462;28;20430;-56
2023/01/01 00:05:04;;;;;;;47.03;41.93;;;15.80;99.90;;;;;;5050958;28;20437;-57
2023/01/01 00:07:32;;;;;;;52.77;40.10;;;15.60;99.90;;;;;;5051216;28;20442;-55
2023/01/01 00:12:43;;;;;;;42.73;33.90;;;15.60;99.90;;;;;;5051759;28;20447;-55
2023/01/01 00:15:10;;;;;;;41.73;35.17;;;15.40;99.90;;;;;;5051038;28;20952;-55
2023/01/01 00:17:36;;;;;;;38.27;32.53;;;15.60;99.90;;;;;;5051208;28;20532;-54
2023/01/01 00:20:03;;;;;;;36.50;26.27;;;15.60;99.90;;;;;;5050272;28;20979;-55
2023/01/01 00:22:31;;;;;;;32.17;24.93;;;15.60;99.90;;;;;;5051028;28;21102;-54
2023/01/01 00:24:58;;;;;;;25.73;21.30;;;15.50;99.90;;;;;;5050869;28;20483;-54
2023/01/01 00:27:25;;;;;;;30.57;20.43;;;15.80;99.90;;;;;;5048919;28;20561;-55
2023/01/01 00:29:52;;;;;;;28.50;18.43;;;15.50;99.90;;;;;;5050045;28;20600;-57
2023/01/01 00:32:18;;;;;;;39.67;17.20;;;15.60;99.90;;;;;;5051386;28;20434;-55
2023/01/01 00:34:45;;;;;;;20.90;13.67;;;15.40;99.90;;;;;;5051013;28;20431;-55
2023/01/01 00:37:13;;;;;;;16.90;15.03;;;15.60;99.90;;;;;;5050924;28;20429;-57
2023/01/01 00:39:41;;;;;;;27.40;19.00;;;15.70;99.90;;;;;;5050157;28;20501;-55
2023/01/01 00:42:08;;;;;;;28.57;19.43;;;15.70;99.90;;;;;;5049651;28;20455;-56
2023/01/01 00:44:34;;;;;;;18.27;14.27;;;15.70;99.90;;;;;;5050778;28;21033;-55
2023/01/01 00:47:01;;;;;;;22.23;12.60;;;15.60;99.90;;;;;;5050906;28;20429;-55
2023/01/01 00:49:28;;;;;;;15.60;10.03;;;15.30;99.90;;;;;;5050163;28;20996;-54
2023/01/01 00:51:54;;;;;;;20.53;13.73;;;15.60;99.90;;;;;;5050784;28;20404;-55
2023/01/01 00:54:21;;;;;;;18.00;11.00;;;15.60;99.90;;;;;;5050557;28;20441;-55
2023/01/01 00:56:49;;;;;;;15.77;9.70;;;15.80;99.90;;;;;;5049887;28;20438;-55
2023/01/01 00:59:15;;;;;;;15.67;9.23;;;15.30;99.90;;;;;;5049764;28;20974;-56
2023/01/01 01:01:42;;;;;;;17.40;7.80;;;15.10;99.90;;;;;;5050706;28;20443;-55
2023/01/01 01:04:09;;;;;;;13.00;8.20;;;15.40;99.90;;;;;;5051215;28;20492;-55
2023/01/01 01:06:35;;;;;;;10.97;8.13;;;15.70;99.90;;;;;;5051320;28;20433;-55
2023/01/01 01:09:03;;;;;;;23.97;11.50;;;15.50;99.90;;;;;;5053306;28;20957;-56
2023/01/01 01:11:29;;;;;;;16.33;11.63;;;15.50;99.90;;;;;;5054320;28;20428;-56
2023/01/01 01:13:57;;;;;;;17.17;8.83;;;15.30;99.90;;;;;;5054584;28;20535;-56
2023/01/01 01:16:26;;;;;;;14.10;9.33;;;15.50;99.90;;;;;;5054660;28;20432;-55
2023/01/01 01:18:56;;;;;;;14.00;8.80;;;15.50;99.90;;;;;;5053357;28;20471;-56
2023/01/01 01:21:24;;;;;;;17.37;8.30;;;15.60;99.90;;;;;;5054284;28;20428;-57
2023/01/01 01:23:51;;;;;;;12.07;8.23;;;15.70;99.90;;;;;;5054521;28;20809;-56
2023/01/01 01:26:21;;;;;;;9.70;7.80;;;15.50;99.90;;;;;;5053874;28;20433;-55
2023/01/01 01:28:49;;;;;;;12.93;6.33;;;15.30;99.90;;;;;;5052996;28;20454;-55
2023/01/01 01:31:17;;;;;;;14.40;7.90;;;15.40;99.90;;;;;;5053916;28;20431;-56
2023/01/01 01:33:44;;;;;;;12.53;7.63;;;15.50;99.90;;;;;;5053977;28;20406;-56
2023/01/01 01:36:11;;;;;;;15.30;8.60;;;15.60;99.90;;;;;;5053486;28;20435;-55
2023/01/01 01:38:38;;;;;;;21.73;11.43;;;15.50;99.90;;;;;;5053049;28;20458;-55
2023/01/01 01:41:05;;;;;;;14.53;8.20;;;15.30;99.90;;;;;;5053316;28;20433;-55
2023/01/01 01:43:52;;;;;;;18.90;11.30;;;15.60;99.90;;;;;;5053721;28;20976;-56
2023/01/01 01:46:24;;;;;;;12.97;8.43;;;15.50;99.90;;;;;;5053841;28;20435;-56
2023/01/01 01:48:52;;;;;;;9.77;6.57;;;15.40;99.90;;;;;;5052601;28;20432;-58
2023/01/01 01:51:25;;;;;;;16.17;9.10;;;15.70;99.90;;;;;;5054026;28;20411;-56
2023/01/01 01:53:54;;;;;;;13.67;7.93;;;15.80;99.90;;;;;;5054219;28;20462;-58
2023/01/01 01:56:26;;;;;;;13.70;7.00;;;15.20;99.90;;;;;;5054149;28;20460;-57
2023/01/01 01:58:53;;;;;;;10.17;6.10;;;15.60;99.90;;;;;;5053126;28;20460;-56
2023/01/01 02:01:24;;;;;;;15.67;7.47;;;15.70;99.90;;;;;;5053899;28;20506;-56
2023/01/01 02:03:56;;;;;;;8.60;6.33;;;15.40;99.90;;;;;;5053524;28;20483;-57
2023/01/01 02:06:24;;;;;;;12.30;6.30;;;15.20;99.90;;;;;;5053370;28;20436;-56
2023/01/01 02:08:52;;;;;;;13.57;7.63;;;15.30;99.90;;;;;;5051718;28;20463;-55
2023/01/01 02:11:18;;;;;;;6.80;5.03;;;15.30;99.90;;;;;;5053080;28;20436;-58
2023/01/01 02:13:45;;;;;;;8.37;4.87;;;15.50;99.90;;;;;;5053160;28;20475;-56
2023/01/01 02:16:16;;;;;;;12.13;5.80;;;15.80;99.90;;;;;;5053163;28;20441;-57
2023/01/01 02:18:50;;;;;;;9.67;6.77;;;15.50;99.90;;;;;;5050363;28;20927;-56
2023/01/01 02:21:22;;;;;;;14.63;5.93;;;15.60;99.90;;;;;;5052798;28;20420;-56
2023/01/01 02:24:15;;;;;;;11.37;6.40;;;15.50;99.80;;;;;;5053224;28;20472;-57
2023/01/01 02:26:49;;;;;;;9.20;5.57;;;15.60;99.40;;;;;;5047460;28;20464;-56
2023/01/01 02:29:40;;;;;;;9.70;6.00;;;15.70;99.50;;;;;;5052672;28;20490;-55
2023/01/01 02:32:10;;;;;;;13.00;6.03;;;15.60;99.20;;;;;;5052720;28;20432;-57
2023/01/01 02:34:41;;;;;;;10.27;6.17;;;15.90;99.20;;;;;;5052851;28;20638;-58
2023/01/01 02:37:11;;;;;;;7.30;5.63;;;15.10;98.90;;;;;;5053061;28;20428;-55
2023/01/01 02:39:43;;;;;;;9.83;5.73;;;15.50;99.20;;;;;;5052165;28;20453;-56
2023/01/01 02:42:09;;;;;;;12.00;6.60;;;15.60;99.10;;;;;;5053300;28;20770;-55
2023/01/01 02:44:41;;;;;;;10.80;6.10;;;15.40;99.00;;;;;;5052859;28;20456;-56
2023/01/01 02:47:10;;;;;;;11.13;5.93;;;15.30;98.90;;;;;;5052577;28;20940;-56
2023/01/01 02:49:41;;;;;;;14.10;7.50;;;15.20;98.90;;;;;;5051878;28;20516;-56
2023/01/01 02:52:11;;;;;;;13.20;6.10;;;15.40;98.90;;;;;;5052650;28;20442;-56
2023/01/01 02:54:44;;;;;;;12.20;6.40;;;15.40;98.80;;;;;;5051943;28;20442;-56
2023/01/01 02:57:19;;;;;;;8.60;6.03;;;15.40;98.80;;;;;;5052502;28;20430;-56
2023/01/01 03:00:20;;;;;;;13.73;6.63;;;15.50;98.90;;;;;;5050526;28;20466;-56
2023/01/01 03:03:02;;;;;;;7.57;5.23;;;15.50;98.80;;;;;;5052502;28;20491;-55
2023/01/01 03:05:36;;;;;;;9.73;6.03;;;15.70;99.20;;;;;;5051989;28;20491;-56
2023/01/01 03:08:13;;;;;;;12.73;5.80;;;15.40;99.00;;;;;;5052353;28;20444;-57
2023/01/01 03:10:45;;;;;;;13.27;6.90;;;15.40;98.90;;;;;;5052291;28;20667;-57
2023/01/01 03:13:17;;;;;;;10.40;6.40;;;15.60;99.10;;;;;;5052164;28;20786;-56
2023/01/01 03:15:51;;;;;;;9.17;6.00;;;15.60;99.10;;;;;;5051833;28;20413;-56
2023/01/01 03:18:23;;;;;;;16.60;5.47;;;15.30;99.00;;;;;;5052581;28;21040;-56
2023/01/01 03:20:53;;;;;;;9.63;5.37;;;15.40;99.00;;;;;;5051902;28;20414;-57
2023/01/01 03:23:24;;;;;;;8.07;5.07;;;15.00;98.80;;;;;;5051979;28;20428;-56
2023/01/01 03:26:11;;;;;;;6.50;4.83;;;15.00;98.80;;;;;;5052218;28;20986;-58
2023/01/01 03:28:45;;;;;;;10.63;4.97;;;15.30;98.90;;;;;;5051311;28;20998;-56
2023/01/01 03:31:16;;;;;;;8.67;5.70;;;14.80;98.70;;;;;;5051576;28;20459;-56
2023/01/01 03:33:47;;;;;;;9.10;4.70;;;15.20;98.90;;;;;;5051802;28;20882;-57
2023/01/01 03:36:19;;;;;;;7.80;4.47;;;15.20;99.00;;;;;;5051278;28;20445;-57
2023/01/01 03:38:50;;;;;;;9.17;5.00;;;15.40;99.00;;;;;;5051329;28;20473;-56
2023/01/01 03:41:22;;;;;;;11.27;5.20;;;15.20;99.00;;;;;;5052092;28;20417;-58
2023/01/01 03:43:53;;;;;;;11.43;4.87;;;15.10;98.80;;;;;;5051753;28;20447;-57
2023/01/01 03:46:27;;;;;;;12.10;5.77;;;15.10;98.80;;;;;;5051500;28;20434;-56
2023/01/01 03:48:59;;;;;;;9.07;5.27;;;15.30;98.80;;;;;;5051071;28;20463;-56
2023/01/01 03:51:34;;;;;;;9.80;4.83;;;15.20;98.80;;;;;;5051808;28;20497;-57
2023/01/01 03:54:07;;;;;;;12.17;6.40;;;15.20;98.90;;;;;;5051747;28;20959;-56
2023/01/01 03:56:40;;;;;;;16.90;6.10;;;15.20;98.80;;;;;;5051856;28;20408;-56
2023/01/01 03:59:12;;;;;;;11.73;5.80;;;15.10;98.90;;;;;;5050885;28;20421;-56
2023/01/01 04:01:46;;;;;;;12.97;6.20;;;15.00;98.70;;;;;;5051493;28;20507;-57
2023/01/01 04:04:14;;;;;;;14.97;6.30;;;15.20;98.80;;;;;;5051561;28;20959;-56
2023/01/01 04:06:40;;;;;;;9.00;5.00;;;15.20;98.90;;;;;;5051409;28;20462;-57
2023/01/01 04:09:12;;;;;;;10.73;5.07;;;15.00;98.90;;;;;;5050857;28;20436;-56
2023/01/01 04:14:28;;;;;;;12.07;6.13;;;15.20;99.10;;;;;;5051637;28;20988;-57
2023/01/01 04:16:56;;;;;;;13.20;5.67;;;15.10;99.10;;;;;;5050801;28;20435;-57
2023/01/01 04:19:23;;;;;;;13.67;6.37;;;15.00;99.10;;;;;;5050848;28;20476;-57
2023/01/01 04:21:49;;;;;;;11.53;6.20;;;15.00;99.20;;;;;;5051791;28;20438;-55
2023/01/01 04:24:16;;;;;;;13.00;5.50;;;15.00;99.00;;;;;;5051399;28;20443;-57
2023/01/01 04:26:43;;;;;;;12.80;6.00;;;14.90;99.00;;;;;;5051467;28;20974;-56
2023/01/01 04:29:09;;;;;;;7.33;5.73;;;15.20;99.10;;;;;;5050418;28;20478;-57
2023/01/01 04:31:36;;;;;;;14.50;7.10;;;15.20;98.90;;;;;;5051307;28;20409;-56
2023/01/01 04:34:04;;;;;;;11.90;6.27;;;15.20;98.90;;;;;;5051528;28;20482;-56
2023/01/01 04:36:31;;;;;;;8.87;5.63;;;15.20;99.00;;;;;;5051322;28;20431;-57
2023/01/01 04:38:57;;;;;;;8.70;5.37;;;15.30;99.00;;;;;;5050604;28;20454;-56
2023/01/01 04:41:24;;;;;;;10.43;5.20;;;14.70;98.70;;;;;;5051334;28;20401;-56
2023/01/01 04:43:51;;;;;;;8.57;5.10;;;14.80;98.80;;;;;;5055079;28;20416;-56
2023/01/01 04:46:18;;;;;;;13.63;6.17;;;15.00;98.90;;;;;;5054808;28;20479;-56
2023/01/01 04:48:45;;;;;;;9.93;5.17;;;15.00;98.90;;;;;;5054472;28;20454;-56
2023/01/01 04:51:15;;;;;;;15.10;5.70;;;14.90;98.90;;;;;;5055056;28;20430;-56
2023/01/01 04:53:42;;;;;;;13.43;6.60;;;15.00;98.90;;;;;;5055083;28;20410;-55
2023/01/01 04:56:11;;;;;;;11.70;6.70;;;15.10;98.90;;;;;;5055029;28;20424;-57
2023/01/01 04:58:39;;;;;;;12.57;5.87;;;15.10;98.90;;;;;;5054275;28;20526;-57
2023/01/01 05:01:07;;;;;;;8.67;5.00;;;14.90;98.90;;;;;;5053723;28;20944;-56
2023/01/01 05:03:33;;;;;;;13.73;5.97;;;15.00;98.90;;;;;;5054724;28;20438;-56
2023/01/01 05:06:01;;;;;;;7.73;4.93;;;15.30;98.90;;;;;;5054145;28;20866;-57
2023/01/01 05:08:29;;;;;;;9.47;5.23;;;15.10;98.90;;;;;;5054047;28;20460;-56
2023/01/01 05:11:00;;;;;;;10.80;5.93;;;14.90;98.80;;;;;;5054970;28;20428;-56
2023/01/01 05:13:27;;;;;;;6.93;5.30;;;15.00;98.80;;;;;;5054730;28;20488;-56
2023/01/01 05:15:53;;;;;;;8.53;4.90;;;14.70;98.60;;;;;;5054451;28;20435;-56
2023/01/01 05:18:20;;;;;;;6.40;4.73;;;15.00;98.70;;;;;;5054215;28;20982;-56
2023/01/01 05:20:47;;;;;;;13.20;5.17;;;15.30;98.90;;;;;;5054135;28;20447;-56
2023/01/01 05:23:16;;;;;;;9.97;4.93;;;14.90;98.70;;;;;;5054710;28;20790;-57
2023/01/01 05:25:44;;;;;;;11.07;4.57;;;15.00;98.70;;;;;;5054327;28;20470;-56
2023/01/01 05:28:12;;;;;;;9.93;4.77;;;15.30;98.90;;;;;;5054221;28;20963;-56
2023/01/01 05:30:39;;;;;;;9.67;5.80;;;15.10;98.80;;;;;;5053522;28;20514;-56
2023/01/01 05:33:06;;;;;;;8.43;5.23;;;15.00;98.70;;;;;;5053840;28;20492;-56
2023/01/01 05:35:33;;;;;;;9.73;4.67;;;15.10;98.80;;;;;;5054138;28;20437;-56
2023/01/01 05:38:00;;;;;;;9.97;4.10;;;15.40;98.90;;;;;;5054422;28;20778;-55
2023/01/01 05:40:26;;;;;;;8.77;4.70;;;15.20;98.80;;;;;;5053441;28;20447;-57
2023/01/01 05:42:54;;;;;;;7.13;4.40;;;15.10;98.70;;;;;;5054083;28;20438;-55
2023/01/01 05:45:21;;;;;;;7.53;4.47;;;15.10;98.70;;;;;;5053795;28;20501;-56
2023/01/01 05:47:47;;;;;;;7.13;3.70;;;15.10;98.70;;;;;;5053724;28;20437;-57
2023/01/01 05:50:14;;;;;;;6.37;4.07;;;15.20;98.70;;;;;;5053221;28;20443;-56
2023/01/01 05:52:41;;;;;;;7.43;4.00;;;14.90;98.50;;;;;;5053749;28;20948;-55
2023/01/01 05:55:08;;;;;;;8.17;4.27;;;15.10;98.70;;;;;;5053767;28;20431;-55
2023/01/01 05:57:34;;;;;;;5.70;3.40;;;14.90;98.60;;;;;;5053622;28;20405;-57
2023/01/01 06:00:02;;;;;;;10.53;5.03;;;14.90;98.60;;;;;;5053093;28;20461;-57
2023/01/01 06:02:33;;;;;;;10.10;5.23;;;15.00;98.60;;;;;;5053770;28;20423;-56
2023/01/01 06:04:59;;;;;;;11.70;5.17;;;14.80;98.50;;;;;;5053751;28;20479;-55
2023/01/01 06:07:26;;;;;;;10.60;3.40;;;15.10;98.60;;;;;;5053769;28;20504;-56
2023/01/01 06:09:53;;;;;;;9.80;4.63;;;15.00;98.50;;;;;;5052960;28;20469;-56
2023/01/01 06:12:19;;;;;;;9.97;3.70;;;15.00;98.60;;;;;;5053685;28;20437;-56
2023/01/01 06:14:46;;;;;;;4.80;3.27;;;15.00;98.60;;;;;;5053494;28;20440;-56
2023/01/01 06:17:14;;;;;;;8.87;3.80;;;14.60;98.40;;;;;;5053666;28;20558;-56
2023/01/01 06:19:40;;;;;;;7.97;3.47;;;15.20;98.70;;;;;;5052557;28;20481;-56
2023/01/01 06:22:07;;;;;;;8.70;4.03;;;15.00;98.70;;;;;;5053303;28;20434;-57
2023/01/01 06:24:33;;;;;;;7.23;3.43;;;14.90;98.50;;;;;;5053188;28;20535;-57
2023/01/01 06:27:00;;;;;;;6.03;4.53;;;15.00;98.60;;;;;;5052918;28;20486;-56
2023/01/01 06:29:26;;;;;;;6.53;3.90;;;15.10;98.70;;;;;;5052536;28;20985;-56
2023/01/01 06:31:53;;;;;;;6.43;3.67;;;15.10;98.70;;;;;;5052837;28;20441;-56
2023/01/01 06:34:21;;;;;;;13.07;4.00;;;15.00;98.60;;;;;;5052897;28;20431;-57
2023/01/01 06:36:47;;;;;;;11.53;3.97;;;15.00;98.60;;;;;;5053108;28;20433;-57
2023/01/01 06:39:14;;;;;;;7.37;3.20;;;15.40;98.90;;;;;;5052100;28;20458;-56
2023/01/01 06:41:41;;;;;;;6.13;2.97;;;15.00;98.60;;;;;;5052857;28;20841;-56
2023/01/01 06:44:07;;;;;;;6.23;3.40;;;14.80;98.60;;;;;;5053015;28;20431;-55
2023/01/01 06:46:35;;;;;;;9.17;3.57;;;14.90;98.60;;;;;;5052832;28;20482;-57
2023/01/01 06:49:04;;;;;;;6.60;3.73;;;15.10;98.70;;;;;;5051982;28;20459;-57
2023/01/01 06:51:33;;;;;;;5.40;3.60;;;15.00;98.70;;;;;;5052809;28;20466;-55
2023/01/01 06:54:02;;;;;;;5.73;3.57;;;15.10;98.80;;;;;;5052737;28;20435;-57
2023/01/01 06:56:30;;;;;;;7.70;3.60;;;14.90;98.60;;;;;;5052763;28;20797;-55
2023/01/01 06:58:57;;;;;;;8.03;3.60;;;14.70;98.50;;;;;;5052005;28;20455;-57
2023/01/01 07:01:25;;;;;;;7.33;3.40;;;15.30;98.80;;;;;;5052630;28;20431;-55
2023/01/01 07:03:54;;;;;;;5.03;3.10;;;15.40;98.90;;;;;;5052968;28;20431;-55
2023/01/01 07:06:21;;;;;;;13.50;3.73;;;15.00;98.70;;;;;;5052389;28;20653;-56
2023/01/01 07:08:50;;;;;;;8.20;3.90;;;14.90;98.70;;;;;;5051509;28;20457;-56
2023/01/01 07:11:16;;;;;;;5.63;3.63;;;14.80;98.70;;;;;;5052448;28;20438;-56
2023/01/01 07:13:44;;;;;;;9.23;3.57;;;15.40;98.90;;;;;;5052580;28;20451;-56
2023/01/01 07:16:11;;;;;;;10.33;3.77;;;14.50;98.50;;;;;;5052365;28;20430;-56
2023/01/01 07:18:38;;;;;;;5.37;3.40;;;14.50;98.50;;;;;;5051490;28;20490;-55
2023/01/01 07:21:06;;;;;;;11.10;4.83;;;15.10;98.80;;;;;;5052343;28;20520;-56
2023/01/01 07:23:35;;;;;;;6.83;4.40;;;15.10;98.80;;;;;;5052332;28;20920;-57
2023/01/01 07:26:03;;;;;;;5.90;3.77;;;14.90;98.70;;;;;;5051836;28;20482;-56
2023/01/01 07:28:29;;;;;;;8.00;4.27;;;15.00;98.70;;;;;;5050066;28;20843;-56
2023/01/01 07:30:56;;;;;;;4.90;3.33;;;15.30;98.90;;;;;;5052080;28;20440;-57
2023/01/01 07:33:23;;;;;;;9.13;4.20;;;15.30;98.80;;;;;;5051944;28;20439;-57
2023/01/01 07:35:50;;;;;;;8.97;4.20;;;14.70;98.50;;;;;;5052555;28;20497;-56
2023/01/01 07:38:17;;;;;;;9.90;3.87;;;15.30;98.80;;;;;;5051951;28;20580;-56
2023/01/01 07:40:43;;;;;;;6.90;4.07;;;15.00;98.50;;;;;;5051414;28;20464;-56
2023/01/01 07:43:13;;;;;;;6.93;6.33;;;15.10;98.60;;;;;;5051991;28;20442;-56
2023/01/01 07:45:40;;;;;;;15.70;3.70;;;15.20;98.60;;;;;;5051651;28;20477;-57
2023/01/01 07:48:11;;;;;;;7.40;4.23;;;14.80;98.30;;;;;;5051663;28;20963;-56
2023/01/01 07:50:38;;;;;;;14.30;4.23;;;15.20;98.50;;;;;;5051064;28;20421;-56
2023/01/01 07:53:04;;;;;;;11.33;4.77;;;15.40;98.60;;;;;;5052035;28;20520;-56
2023/01/01 07:55:32;;;;;;;6.50;3.90;;;15.10;98.40;;;;;;5051971;28;20436;-57
2023/01/01 07:57:59;;;;;;;6.07;4.27;;;15.20;98.50;;;;;;5051834;28;20518;-57
2023/01/01 08:00:28;;;;;;;8.20;4.53;;;15.30;98.50;;;;;;5050745;28;20431;-56
2023/01/01 08:02:54;;;;;;;6.97;4.47;;;15.20;98.50;;;;;;5051815;28;20446;-57
2023/01/01 08:05:21;;;;;;;10.47;5.33;;;15.30;98.40;;;;;;5051724;28;20439;-56
2023/01/01 08:07:49;;;;;;;9.10;4.60;;;15.40;98.50;;;;;;5051584;28;20518;-57
2023/01/01 08:10:16;;;;;;;6.60;4.23;;;15.30;98.40;;;;;;5051000;28;20442;-56
2023/01/01 08:12:43;;;;;;;7.77;4.37;;;15.20;98.40;;;;;;5051637;28;20931;-57
2023/01/01 08:15:11;;;;;;;7.70;4.47;;;15.40;98.40;;;;;;5051631;28;20504;-57
2023/01/01 08:17:39;;;;;;;8.63;4.60;;;15.20;98.40;;;;;;5053722;28;20935;-57
2023/01/01 08:20:08;;;;;;;7.53;4.00;;;15.60;98.50;;;;;;5053593;28;20482;-58
2023/01/01 08:22:34;;;;;;;6.80;4.27;;;15.20;98.40;;;;;;5055844;28;20430;-57
2023/01/01 08:25:01;;;;;;;13.23;5.33;;;15.10;98.20;;;;;;5055531;28;20436;-56
2023/01/01 08:27:27;;;;;;;6.37;3.73;;;15.50;98.40;;;;;;5055573;28;21000;-57
2023/01/01 08:29:54;;;;;;;10.27;4.33;;;15.40;98.30;;;;;;5054573;28;20447;-57
2023/01/01 08:32:20;;;;;;;8.07;5.07;;;15.20;98.20;;;;;;5055465;28;20445;-56
2023/01/01 08:34:48;;;;;;;7.17;4.43;;;15.60;98.40;;;;;;5055328;28;20406;-56
2023/01/01 08:37:15;;;;;;;7.20;5.37;;;15.50;98.30;;;;;;5055333;28;20454;-55
2023/01/01 08:39:41;;;;;;;10.80;5.17;;;15.40;98.30;;;;;;5054568;28;20468;-56
2023/01/01 08:42:08;;;;;;;8.40;4.70;;;15.40;98.30;;;;;;5055223;28;20435;-56
2023/01/01 08:44:35;;;;;;;11.87;4.90;;;15.40;98.30;;;;;;5055316;28;20801;-57
2023/01/01 08:47:01;;;;;;;9.80;4.90;;;15.50;98.30;;;;;;5055448;28;20891;-56
2023/01/01 08:49:28;;;;;;;5.67;4.30;;;15.40;98.30;;;;;;5054374;28;20456;-56
2023/01/01 08:51:56;;;;;;;6.50;4.53;;;15.40;98.20;;;;;;5055353;28;20475;-56
2023/01/01 08:54:22;;;;;;;6.17;4.70;;;15.50;98.30;;;;;;5054967;28;20778;-56
2023/01/01 08:56:49;;;;;;;8.60;5.00;;;15.90;98.50;;;;;;5055266;28;20837;-56
2023/01/01 08:59:15;;;;;;;8.90;4.97;;;15.50;98.20;;;;;;5054484;28;20546;-55
2023/01/01 09:01:42;;;;;;;7.33;4.90;;;15.80;98.40;;;;;;5055043;28;20488;-56
2023/01/01 09:04:11;;;;;;;9.23;4.33;;;15.60;98.30;;;;;;5055161;28;20444;-56
2023/01/01 09:06:38;;;;;;;8.60;4.27;;;15.50;98.20;;;;;;5054950;28;20472;-56
2023/01/01 09:09:06;;;;;;;6.27;4.13;;;15.80;98.40;;;;;;5054134;28;20455;-57
2023/01/01 09:11:32;;;;;;;12.37;5.40;;;15.50;98.20;;;;;;5054688;28;20800;-56
2023/01/01 09:13:59;;;;;;;6.80;4.73;;;15.60;98.20;;;;;;5054933;28;20903;-57
2023/01/01 09:16:26;;;;;;;9.50;5.40;;;15.50;98.20;;;;;;5054888;28;20921;-55
2023/01/01 09:18:52;;;;;;;7.57;4.40;;;15.60;98.30;;;;;;5054255;28;20478;-56
2023/01/01 09:21:19;;;;;;;9.80;5.77;;;15.80;98.30;;;;;;5054513;28;20459;-54
2023/01/01 09:23:46;;;;;;;9.90;4.60;;;15.60;98.20;;;;;;5054397;28;20441;-57
2023/01/01 09:26:14;;;;;;;11.10;4.47;;;15.40;98.10;;;;;;5054382;28;20480;-55
2023/01/01 09:28:40;;;;;;;7.60;4.73;;;15.90;98.40;;;;;;5053149;28;20876;-55
2023/01/01 09:31:07;;;;;;;5.43;3.73;;;15.50;98.20;;;;;;5054401;28;20440;-55
2023/01/01 09:33:34;;;;;;;7.20;4.50;;;15.50;98.20;;;;;;5054255;28;20409;-55
2023/01/01 09:36:15;;;;;;;10.67;4.10;;;15.70;98.30;;;;;;5052887;28;20457;-58
2023/01/01 09:38:41;;;;;;;9.83;4.80;;;16.00;98.40;;;;;;5053268;28;20456;-53
2023/01/01 09:41:19;;;;;;;8.07;4.47;;;15.90;98.30;;;;;;5054235;28;20435;-57
2023/01/01 09:43:55;;;;;;;7.80;4.40;;;15.90;98.30;;;;;;5053979;28;20793;-54
2023/01/01 09:46:23;;;;;;;8.20;4.00;;;15.80;98.20;;;;;;5054207;28;20545;-54
2023/01/01 09:48:55;;;;;;;6.03;4.43;;;15.30;97.90;;;;;;5053675;28;20808;-55
2023/01/01 09:51:24;;;;;;;6.13;4.23;;;15.80;98.00;;;;;;5054057;28;20784;-54
2023/01/01 09:53:55;;;;;;;13.37;4.80;;;16.10;98.10;;;;;;5053861;28;20432;-54
2023/01/01 09:56:26;;;;;;;8.67;3.47;;;16.00;98.00;;;;;;5053854;28;20435;-55
2023/01/01 09:58:54;;;;;;;8.77;4.17;;;16.20;98.00;;;;;;5053137;28;20452;-55
2023/01/01 10:01:34;;;;;;;9.27;4.50;;;16.20;98.00;;;;;;5053705;28;20440;-56
2023/01/01 10:04:08;;;;;;;6.70;3.80;;;16.00;97.90;;;;;;5054073;28;20793;-55
2023/01/01 10:06:43;;;;;;;7.73;4.60;;;16.00;97.90;;;;;;5053840;28;20477;-57
2023/01/01 10:09:21;;;;;;;7.03;4.70;;;16.10;97.90;;;;;;5052959;28;20459;-56
2023/01/01 10:11:58;;;;;;;6.77;4.30;;;16.10;97.90;;;;;;5052699;28;20496;-55
2023/01/01 10:14:30;;;;;;;5.77;3.97;;;16.10;97.90;;;;;;5053582;28;20431;-54
2023/01/01 10:16:58;;;;;;;5.03;3.80;;;16.10;97.90;;;;;;5053540;28;20441;-55
2023/01/01 10:19:33;;;;;;;14.73;4.70;;;16.10;97.80;;;;;;5052673;28;20714;-56
2023/01/01 10:22:05;;;;;;;6.60;4.10;;;16.20;97.80;;;;;;5053291;28;20445;-55
2023/01/01 10:24:41;;;;;;;6.70;3.80;;;16.30;97.90;;;;;;5053324;28;20434;-57
2023/01/01 10:27:13;;;;;;;9.47;3.90;;;16.10;97.70;;;;;;5053241;28;20510;-56
2023/01/01 10:29:45;;;;;;;7.33;4.17;;;16.20;97.80;;;;;;5052473;28;20449;-55
2023/01/01 10:32:19;;;;;;;7.30;3.97;;;16.10;97.70;;;;;;5053148;28;20944;-57
2023/01/01 10:34:46;;;;;;;4.30;3.37;;;16.30;98.10;;;;;;5053036;28;20914;-57
2023/01/01 10:37:14;;;;;;;6.10;3.60;;;16.30;97.80;;;;;;5053001;28;20445;-55
2023/01/01 10:39:42;;;;;;;10.57;4.30;;;16.00;97.60;;;;;;5051172;28;20987;-56
2023/01/01 10:42:12;;;;;;;7.90;3.60;;;16.40;97.80;;;;;;5053157;28;20451;-56
2023/01/01 10:44:40;;;;;;;6.20;3.60;;;16.10;97.60;;;;;;5051626;28;20451;-55
2023/01/01 10:47:25;;;;;;;32.67;6.90;;;16.50;97.90;;;;;;5052693;28;20508;-57
2023/01/01 10:49:55;;;;;;;8.70;3.90;;;16.30;97.70;;;;;;5052265;28;20551;-55
2023/01/01 10:52:27;;;;;;;6.20;3.80;;;16.30;97.80;;;;;;5052903;28;20468;-55
2023/01/01 10:54:54;;;;;;;6.67;3.57;;;16.30;97.70;;;;;;5053328;28;20437;-55
2023/01/01 10:57:31;;;;;;;5.30;3.70;;;16.40;97.80;;;;;;5052693;28;20431;-55
2023/01/01 11:00:11;;;;;;;9.23;3.70;;;16.50;97.80;;;;;;5051908;28;20442;-56
2023/01/01 11:02:39;;;;;;;9.80;3.60;;;16.40;97.80;;;;;;5052676;28;20438;-55
2023/01/01 11:05:15;;;;;;;6.33;3.70;;;16.60;97.80;;;;;;5052816;28;20430;-55
2023/01/01 11:07:43;;;;;;;7.70;3.97;;;16.60;97.70;;;;;;5052509;28;20476;-55
2023/01/01 11:10:17;;;;;;;12.80;3.60;;;16.40;97.90;;;;;;5051644;28;20447;-55
2023/01/01 11:12:45;;;;;;;6.00;3.70;;;16.20;97.40;;;;;;5052520;28;20412;-55
2023/01/01 11:15:22;;;;;;;6.73;3.50;;;16.20;97.40;;;;;;5052235;28;20441;-55
2023/01/01 11:17:49;;;;;;;9.30;3.50;;;16.50;97.50;;;;;;5052121;28;20426;-56
2023/01/01 11:20:19;;;;;;;5.90;3.80;;;16.90;97.70;;;;;;5051729;28;20890;-56
2023/01/01 11:22:49;;;;;;;6.73;3.27;;;16.00;97.10;;;;;;5052200;28;20428;-56
2023/01/01 11:25:21;;;;;;;5.80;3.00;;;16.80;97.50;;;;;;5051986;28;20464;-55
2023/01/01 11:27:50;;;;;;;5.60;3.30;;;16.60;97.30;;;;;;5052076;28;20481;-54
2023/01/01 11:30:26;;;;;;;6.17;3.23;;;16.60;97.30;;;;;;5051671;28;20439;-55
2023/01/01 11:32:57;;;;;;;6.87;3.03;;;16.50;97.20;;;;;;5052185;28;20438;-54
2023/01/01 11:35:26;;;;;;;24.00;5.00;;;16.50;97.10;;;;;;5051943;28;20798;-55
2023/01/01 11:37:54;;;;;;;5.90;2.87;;;16.50;97.10;;;;;;5051928;28;20432;-54
2023/01/01 11:40:23;;;;;;;6.20;3.73;;;16.60;97.10;;;;;;5051340;28;20475;-56
2023/01/01 11:42:54;;;;;;;12.40;4.00;;;16.60;97.00;;;;;;5051733;28;20870;-55
2023/01/01 11:45:23;;;;;;;4.63;2.80;;;16.80;97.00;;;;;;5052153;28;20804;-55
2023/01/01 11:47:54;;;;;;;4.90;3.50;;;16.70;97.00;;;;;;5051653;28;20483;-55
2023/01/01 11:50:26;;;;;;;6.27;3.27;;;16.80;96.90;;;;;;5051229;28;20434;-56
2023/01/01 11:52:54;;;;;;;7.93;3.67;;;16.30;96.70;;;;;;5052127;28;20448;-56
2023/01/01 11:55:29;;;;;;;5.17;3.00;;;16.50;96.80;;;;;;5051857;28;20434;-56
2023/01/01 11:58:05;;;;;;;8.83;3.40;;;16.70;97.00;;;;;;5051936;28;20432;-56
2023/01/01 12:00:35;;;;;;;5.00;2.87;;;16.80;96.90;;;;;;5051409;28;20436;-56
2023/01/01 12:03:11;;;;;;;6.47;3.10;;;16.40;96.80;;;;;;5051812;28;20436;-57
2023/01/01 12:05:46;;;;;;;10.50;3.47;;;16.80;97.00;;;;;;5051704;28;20446;-58
2023/01/01 12:08:21;;;;;;;7.93;3.93;;;16.70;96.90;;;;;;5050283;28;20470;-56
2023/01/01 12:10:52;;;;;;;6.53;3.47;;;16.40;96.80;;;;;;5051300;28;20436;-55
2023/01/01 12:13:26;;;;;;;8.10;3.83;;;16.60;96.80;;;;;;5051683;28;20434;-55
2023/01/01 12:16:00;;;;;;;7.00;2.70;;;16.60;96.80;;;;;;5051481;28;20404;-56
2023/01/01 12:18:33;;;;;;;5.77;2.97;;;16.40;96.80;;;;;;5051097;28;20472;-56
2023/01/01 12:21:07;;;;;;;9.27;3.20;;;16.50;96.80;;;;;;5051223;28;20440;-56
2023/01/01 12:23:34;;;;;;;6.17;4.33;;;16.70;97.00;;;;;;5051512;28;20498;-56
2023/01/01 12:26:11;;;;;;;5.40;3.87;;;16.20;96.80;;;;;;5051394;28;20442;-56
2023/01/01 12:28:53;;;;;;;9.53;3.43;;;16.80;97.10;;;;;;5050675;28;20479;-56
2023/01/01 12:31:28;;;;;;;5.07;2.83;;;16.70;97.00;;;;;;5051354;28;20429;-56
2023/01/01 12:34:04;;;;;;;13.43;3.93;;;16.50;96.90;;;;;;5051005;28;20435;-55
2023/01/01 12:36:41;;;;;;;6.97;3.00;;;16.80;97.10;;;;;;5051638;28;20437;-56
2023/01/01 12:39:48;;;;;;;6.83;3.70;;;16.70;97.10;;;;;;5050730;28;20460;-55
2023/01/01 12:42:23;;;;;;;9.73;4.23;;;16.90;97.10;;;;;;5051248;28;20415;-56
2023/01/01 12:45:07;;;;;;;7.43;4.07;;;16.30;96.90;;;;;;5051307;28;20432;-57
2023/01/01 12:47:44;;;;;;;14.73;3.60;;;16.20;96.90;;;;;;5051069;28;20977;-56
2023/01/01 12:50:18;;;;;;;8.77;3.90;;;16.40;97.00;;;;;;5050472;28;20448;-56
2023/01/01 12:52:58;;;;;;;8.80;4.00;;;16.80;97.30;;;;;;5051158;28;20427;-56
2023/01/01 12:55:58;;;;;;;9.07;3.47;;;16.20;97.10;;;;;;5050864;28;20442;-57
2023/01/01 12:58:29;;;;;;;4.67;3.13;;;16.60;97.30;;;;;;5025968;28;20472;-56
2023/01/01 13:01:01;;;;;;;5.30;2.97;;;16.40;97.30;;;;;;5050974;28;20434;-56